Date,TemperatureHighF,TemperatureAvgF,TemperatureLowF,DewpointHighF,DewpointAvgF,DewpointLowF,HumidityHigh,HumidityAvg,HumidityLow,PressureMaxIn,PressureMinIn,WindSpeedMaxMPH,WindSpeedAvgMPH,GustSpeedMaxMPH,PrecipitationSumIn
2013-1-1,12.3,7.5,2.6,3.0,-21.9,-99.9,78,56,65,30.28,30.17,11,5,0,0.00
2013-1-2,24.1,18.4,8.4,17.0,5.4,-99.9,84,68,58,30.20,30.07,17,4,0,0.00
2013-1-3,23.8,21.2,13.8,18.0,9.7,-99.9,82,75,77,30.22,30.01,17,9,0,0.00
2013-1-4,26.7,19.1,10.4,17.0,12.6,5.0,83,76,66,30.21,30.08,21,10,0,0.00
2013-1-5,35.0,26.5,10.7,33.0,22.3,8.0,96,85,69,30.23,29.86,16,6,0,0.05
2013-1-6,34.3,26.2,16.4,32.0,9.8,-99.9,91,73,71,30.31,29.86,19,8,0,0.01
2013-1-7,37.3,26.7,14.8,26.0,8.1,-99.9,91,66,56,30.31,30.04,32,9,0,0.01
2013-1-8,40.2,33.6,25.4,30.0,27.2,23.0,93,78,63,30.13,29.93,17,5,0,0.03
2013-1-9,39.6,34.7,27.0,31.0,18.1,-99.9,82,66,54,30.43,29.89,29,12,0,0.01
2013-1-10,38.6,29.8,17.2,35.0,-19.2,-99.9,98,54,72,30.50,29.89,13,-20,0,0.28
2013-1-11,49.8,41.5,36.0,47.0,13.3,-99.9,100,80,86,29.88,29.58,13,4,0,0.37
2013-1-12,51.0,37.8,24.2,46.0,14.3,-99.9,89,66,66,29.97,29.58,27,11,0,0.00
2013-1-13,24.1,17.6,12.8,21.0,7.0,-99.9,87,72,69,30.19,29.88,19,8,0,0.00
2013-1-14,22.4,14.8,8.3,9.0,0.8,-99.9,76,64,54,30.46,30.20,17,6,0,0.00
2013-1-15,29.5,20.5,10.5,17.0,7.4,-99.9,86,66,49,30.42,30.08,12,4,0,0.00
2013-1-16,31.6,26.2,18.6,28.0,13.8,-99.9,87,69,58,30.08,29.73,24,10,0,0.00
2013-1-17,27.3,18.5,11.1,18.0,4.1,-99.9,71,58,43,30.40,30.03,20,6,0,0.00
2013-1-18,40.8,28.0,9.0,32.0,12.0,-99.9,83,68,13,30.42,29.78,26,9,0,0.05
2013-1-19,42.5,36.5,14.1,34.0,20.3,-99.9,82,67,40,29.86,29.59,32,12,0,0.02
2013-1-20,13.3,8.7,5.4,2.0,-7.6,-99.9,65,56,49,30.30,29.88,30,10,0,0.00
2013-1-21,7.9,1.5,-5.0,-1.0,-15.1,-99.9,74,55,48,30.30,30.13,27,12,0,0.00
2013-1-22,3.9,-1.2,-7.2,-8.0,-14.4,-99.9,64,57,54,30.38,30.29,16,8,0,0.00
2013-1-23,16.1,9.6,1.5,11.0,-11.7,-99.9,80,60,61,30.39,30.09,19,7,0,0.00
2013-1-24,15.7,8.4,0.3,7.0,-16.7,-99.9,68,52,50,30.68,30.39,12,4,0,0.00
2013-1-25,22.1,18.4,15.4,18.0,3.6,-99.9,88,71,54,30.37,29.93,15,6,0,0.00
2013-1-26,24.1,16.4,7.0,13.0,0.4,-99.9,79,64,53,30.39,30.18,8,4,0,0.00
2013-1-27,31.9,27.7,23.2,31.0,14.5,-99.9,98,75,63,30.35,29.87,19,7,0,0.00
2013-1-28,37.6,34.2,31.0,37.0,26.4,-99.9,100,90,80,29.94,29.76,12,4,0,0.16
2013-1-29,57.5,44.1,35.8,57.0,22.0,-99.9,100,84,67,29.81,29.43,14,5,0,1.31
2013-1-30,36.9,27.4,15.4,37.0,16.8,-99.9,100,86,81,29.56,29.27,24,5,0,0.13
2013-1-31,15.2,10.1,2.0,10.0,-5.5,-99.9,80,66,67,30.12,29.57,19,12,0,0.00
2013-2-1,5.0,0.8,-3.3,0.0,-12.7,-99.9,79,64,61,30.33,30.13,18,9,0,0.00
2013-2-2,10.0,6.5,2.6,3.0,-11.3,-99.9,83,65,60,30.18,30.04,12,4,0,0.00
2013-2-3,16.1,11.0,4.1,8.0,3.9,-3.0,83,73,62,30.04,29.95,20,6,0,0.00
2013-2-4,16.9,11.6,3.7,10.0,-8.6,-99.9,86,65,55,30.03,29.94,19,3,0,0.00
2013-2-5,25.8,17.5,-1.4,21.0,9.0,-99.9,88,77,67,30.09,29.78,157,7,0,0.00
2013-2-6,31.5,20.2,1.1,27.0,9.4,-99.9,86,73,60,30.24,30.08,10,2,0,0.04
2013-2-7,32.8,30.9,21.0,32.0,23.2,-99.9,100,90,84,30.10,29.90,11,4,0,0.05
2013-2-8,22.4,18.1,3.7,20.0,-12.0,-99.9,96,65,75,30.43,30.03,14,5,0,0.00
2013-2-9,26.7,18.9,1.5,23.0,8.3,-99.9,94,82,81,30.43,30.11,14,-9,0,0.00
2013-2-10,42.9,31.2,14.4,43.0,25.9,-99.9,100,91,16,30.11,29.37,19,6,0,0.67
2013-2-11,40.5,31.4,26.6,35.0,22.5,-99.9,86,77,72,29.94,29.38,31,16,0,0.00
2013-2-12,26.9,23.8,20.2,21.0,11.6,-99.9,85,73,66,30.07,29.86,17,8,0,0.00
2013-2-13,37.8,30.6,21.6,28.0,-4.0,-99.9,92,59,63,29.86,29.67,12,5,0,0.00
2013-2-14,34.7,30.5,26.0,33.0,2.0,-99.9,96,72,76,29.96,29.55,17,-29,0,0.07
2013-2-15,24.4,18.2,12.1,21.0,-1.8,-99.9,89,61,50,30.19,29.97,12,-6,0,0.00
2013-2-16,14.8,9.3,5.0,3.0,-38.1,-99.9,77,40,50,30.20,30.14,14,-30,0,0.00
2013-2-17,26.1,15.3,2.2,14.0,-12.9,-99.9,74,46,38,30.23,29.99,11,-9,0,0.00
2013-2-18,45.5,35.4,26.3,39.0,12.7,-99.9,96,65,61,29.98,29.39,16,8,0,0.28
2013-2-19,31.5,14.2,7.4,30.0,-26.8,-99.9,96,52,63,30.15,29.44,27,14,0,0.00
2013-2-20,19.5,12.3,4.5,9.0,-7.1,-99.9,72,60,62,30.39,30.16,16,7,0,0.00
2013-2-21,25.7,19.3,11.6,24.0,5.7,-99.9,92,76,70,30.44,30.11,19,6,0,0.00
2013-2-22,30.6,27.1,23.2,28.0,8.5,-99.9,96,79,82,30.11,29.77,15,6,0,0.02
2013-2-23,29.4,25.2,19.9,24.0,7.1,-99.9,89,71,67,29.91,29.81,18,7,0,0.00
2013-2-24,35.5,25.9,17.5,25.0,9.7,-99.9,91,72,61,30.15,29.91,10,3,0,0.01
2013-2-25,40.5,27.8,15.2,26.0,18.4,-99.9,93,76,52,30.18,30.05,7,1,0,0.00
2013-2-26,33.1,30.8,27.5,31.0,21.3,-99.9,99,83,74,30.05,29.60,27,11,0,0.01
2013-2-27,32.7,30.9,28.2,31.0,21.6,-99.9,100,90,93,29.73,29.57,16,8,0,0.05
2013-2-28,32.7,29.6,24.1,30.0,-0.0,-99.9,94,67,73,30.12,29.73,17,8,0,0.01
2013-3-1,24.4,22.6,19.4,19.0,7.2,-99.9,82,71,69,30.25,30.09,20,8,0,0.00
2013-3-2,22.9,17.4,10.0,14.0,-18.5,-99.9,81,53,67,30.24,30.18,12,-8,0,0.00
2013-3-3,26.4,15.0,4.8,14.0,-0.8,-99.9,84,63,28,30.18,30.10,12,2,0,0.00
2013-3-4,29.7,19.8,3.2,25.0,8.7,-99.9,82,74,67,30.17,30.05,12,4,0,0.00
2013-3-5,30.7,28.6,25.6,26.0,18.3,-99.9,92,76,63,30.05,29.89,18,7,0,0.01
2013-3-6,31.8,28.9,25.6,26.0,22.2,-99.9,86,80,74,30.32,30.05,14,7,0,0.00
2013-3-7,36.8,27.2,19.2,23.0,18.7,13.0,83,71,51,30.47,30.32,7,2,0,0.00
2013-3-8,39.6,27.2,11.6,28.0,4.8,-99.9,88,68,58,30.52,30.33,10,-10,0,0.00
2013-3-9,38.6,32.2,26.4,34.0,4.6,-99.9,95,66,72,30.32,29.85,12,-7,0,0.16
2013-3-10,41.9,37.7,35.2,42.0,28.0,-99.9,100,92,96,29.84,29.57,13,3,0,0.85
2013-3-11,36.3,33.5,29.4,36.0,24.8,-99.9,100,91,67,29.67,29.47,12,5,0,0.03
2013-3-12,31.5,28.2,23.9,26.0,15.5,-99.9,93,72,61,29.95,29.68,18,9,0,0.01
2013-3-13,29.8,24.1,18.6,17.0,6.7,-99.9,77,56,38,30.27,29.95,20,10,0,0.00
2013-3-14,35.5,28.1,18.9,27.0,12.4,-99.9,91,61,37,30.27,30.02,10,4,0,0.00
2013-3-15,35.0,30.7,27.3,32.0,16.5,-99.9,93,81,77,30.01,29.79,12,6,0,0.02
2013-3-16,28.5,25.4,21.3,25.0,5.7,-99.9,94,71,64,30.09,29.78,14,-6,0,0.01
2013-3-17,27.6,22.7,15.4,21.0,-5.3,-99.9,77,56,60,30.24,30.01,14,7,0,0.00
2013-3-18,32.4,28.1,17.8,31.0,-14.3,-99.9,96,56,19,30.00,29.52,21,9,0,0.08
2013-3-19,27.5,18.9,12.9,12.0,-15.6,-99.9,79,47,14,29.99,29.64,30,16,0,0.00
2013-3-20,19.2,14.2,9.2,6.0,-33.0,-99.9,60,37,53,30.02,29.97,20,-15,0,0.00
2013-3-21,27.0,17.9,10.0,13.0,-5.5,-99.9,69,56,52,30.02,29.98,16,7,0,0.00
2013-3-22,31.6,23.0,13.6,18.0,3.9,-99.9,82,59,52,30.05,29.99,8,3,0,0.00
2013-3-23,38.2,27.2,16.5,24.0,2.7,-99.9,86,62,43,30.12,30.04,11,2,0,0.00
2013-3-24,31.8,30.5,29.0,29.0,6.9,-99.9,92,68,68,30.02,29.73,17,8,0,0.02
2013-3-25,33.4,30.1,25.8,26.0,11.2,-99.9,85,68,64,30.05,29.75,17,7,0,0.00
2013-3-26,37.9,33.7,29.1,28.0,21.9,-99.9,77,69,62,30.19,30.05,14,6,0,0.00
2013-3-27,40.2,35.6,30.6,26.0,15.2,-99.9,74,54,40,30.26,30.19,17,6,0,0.00
2013-3-28,44.1,35.5,26.9,24.0,9.7,-99.9,71,50,39,30.30,30.25,11,3,0,0.00
2013-3-29,46.1,37.1,28.4,25.0,16.5,-99.9,72,51,34,30.28,30.19,8,3,0,0.00
2013-3-30,54.1,42.3,27.6,40.0,22.1,-99.9,87,60,44,30.19,29.75,19,5,0,0.02
2013-3-31,47.1,39.7,31.6,41.0,22.2,-99.9,96,73,54,29.83,29.64,21,9,0,0.00
2013-4-1,33.4,29.0,24.7,15.0,3.3,-99.9,59,46,38,30.14,29.85,20,10,0,0.00
2013-4-2,37.3,30.3,23.8,16.0,10.4,-99.9,67,50,34,30.27,30.13,18,8,0,0.00
2013-4-3,40.2,31.2,22.4,19.0,12.9,-99.9,75,51,28,30.43,30.26,12,4,0,0.00
2013-4-4,55.0,41.9,28.8,34.0,18.0,-99.9,61,46,38,30.25,29.89,25,7,0,0.00
2013-4-5,40.5,35.6,31.2,29.0,19.0,-99.9,82,62,52,30.22,29.97,13,5,0,0.00
2013-4-6,58.3,44.7,33.5,50.0,26.9,-99.9,89,65,49,30.14,29.47,24,-6,0,0.11
2013-4-7,52.8,40.6,34.7,49.0,32.9,27.0,87,75,60,29.95,29.47,17,7,0,0.00
2013-4-8,46.7,39.3,34.4,46.0,23.1,-99.9,99,81,83,29.95,29.60,16,-8,0,0.59
2013-4-9,40.8,36.0,34.9,39.0,27.3,-99.9,100,93,93,30.01,29.86,20,-6,0,0.94
2013-4-10,36.9,34.9,32.1,36.0,27.1,-99.9,98,91,89,30.03,29.83,22,10,0,1.03
2013-4-11,36.9,35.2,34.3,36.0,32.3,-99.9,99,95,90,29.92,29.57,22,12,0,0.32
2013-4-12,39.2,35.5,33.4,38.0,28.7,-99.9,100,91,79,29.74,29.49,12,5,0,0.05
2013-4-13,37.2,34.8,31.0,31.0,27.1,24.0,89,74,58,29.95,29.72,20,9,0,0.01
2013-4-14,47.0,36.5,30.7,42.0,23.7,-99.9,92,79,74,29.99,29.61,18,6,0,0.31
2013-4-15,60.7,47.9,41.9,52.0,29.4,-99.9,99,73,43,29.89,29.58,157,-29,0,0.39
2013-4-16,50.1,41.5,34.7,38.0,21.6,-99.9,91,67,52,30.27,29.88,20,6,0,0.00
2013-4-17,41.5,38.3,36.6,40.0,8.3,-99.9,97,68,69,30.30,29.86,14,-18,0,0.51
2013-4-18,48.9,43.8,39.6,49.0,14.7,-99.9,100,79,82,29.87,29.31,21,6,0,0.75
2013-4-19,39.3,35.2,30.1,33.0,16.0,-99.9,79,65,55,29.84,29.30,27,14,0,0.01
2013-4-20,41.3,32.0,26.0,23.0,4.9,-99.9,74,49,31,30.39,29.84,19,-4,0,0.00
2013-4-21,43.6,37.0,28.5,32.0,-2.7,-99.9,82,51,45,30.50,30.25,19,-6,0,0.00
2013-4-22,65.0,45.3,-90.0,44.0,17.6,-99.9,72,48,37,30.25,29.97,157,-41,0,0.00
2013-4-23,52.5,39.6,36.2,48.0,-7.6,-99.9,92,55,53,29.96,29.84,22,-72,0,0.13
2013-4-24,51.0,41.4,33.4,31.0,15.5,-99.9,78,51,28,29.98,29.91,19,6,0,0.00
2013-4-25,50.8,43.1,36.3,36.0,17.4,-99.9,91,56,40,30.25,29.90,19,-4,0,0.06
2013-4-26,67.4,48.2,33.9,45.0,16.5,-99.9,76,49,37,30.27,30.09,25,-40,0,0.00
2013-4-27,66.4,46.5,47.7,50.0,8.6,-99.9,85,51,44,30.19,29.98,157,-104,0,0.00
2013-4-28,69.3,50.1,45.7,48.0,22.8,-99.9,90,58,39,29.98,29.75,157,-45,0,0.00
2013-4-29,69.4,49.8,48.2,53.0,0.9,-99.9,98,52,51,29.79,29.68,16,-135,0,0.00
2013-4-30,85.9,68.3,53.1,62.0,37.7,-99.9,92,54,28,29.83,29.64,25,-15,0,0.01
2013-5-1,82.2,61.7,48.0,58.0,14.6,-99.9,77,45,36,30.25,29.84,16,-87,0,0.00
2013-5-2,58.6,43.9,38.2,47.0,19.3,-99.9,94,68,57,30.32,30.21,16,-39,0,0.71
2013-5-3,48.8,38.8,36.5,46.0,-36.0,-99.9,97,43,83,30.27,30.07,14,-52,0,0.30
2013-5-4,67.6,43.3,43.8,49.0,-2.4,-99.9,90,49,47,30.11,30.05,157,-125,0,0.00
2013-5-5,69.4,46.2,44.6,47.0,-1.2,-99.9,86,44,36,30.11,30.03,157,-137,0,0.00
2013-5-6,72.3,50.7,47.3,44.0,5.6,-99.9,72,40,24,30.10,30.00,11,-84,0,0.00
2013-5-7,73.7,50.0,-74.5,46.0,-4.3,-99.9,79,37,30,30.35,30.00,10,-105,0,0.00
2013-5-8,79.2,57.8,44.6,51.0,19.9,-99.9,89,46,26,30.39,29.96,157,-43,0,0.00
2013-5-9,69.8,49.7,41.3,59.0,9.4,-99.9,96,57,50,29.98,29.93,157,-53,0,0.48
2013-5-10,47.1,43.0,41.1,43.0,39.6,-99.9,98,92,83,30.02,29.88,17,7,0,0.84
2013-5-11,52.2,45.2,36.9,52.0,31.7,-99.9,100,72,37,30.05,29.78,25,10,0,0.02
2013-5-12,51.1,42.1,35.0,33.0,22.6,-99.9,88,55,33,30.17,30.04,20,10,0,0.00
2013-5-13,57.0,43.0,29.4,38.0,25.1,-99.9,95,61,28,30.21,29.98,10,3,0,0.00
2013-5-14,79.2,59.7,46.4,63.0,26.3,-99.9,64,46,36,29.97,29.52,17,-31,0,0.00
2013-5-15,76.8,66.7,58.4,59.0,23.4,-99.9,62,36,26,29.86,29.52,21,-50,0,0.00
2013-5-16,77.0,61.3,56.2,50.0,19.2,-99.9,67,35,31,30.04,29.85,13,-44,0,0.00
2013-5-17,57.6,52.5,47.9,50.0,35.9,-99.9,94,68,41,30.20,30.03,11,4,0,0.57
2013-5-18,72.3,56.6,51.7,60.0,33.1,-99.9,87,64,64,30.14,30.01,10,-33,0,0.00
2013-5-19,80.5,60.2,52.3,65.0,40.7,-99.9,93,67,57,30.06,29.70,14,-94,0,0.00
2013-5-20,84.0,64.9,64.5,65.0,22.8,-99.9,87,47,39,29.74,29.64,25,-115,0,0.18
2013-5-21,78.1,61.5,62.6,63.0,23.2,-99.9,94,53,46,29.69,29.60,30,-81,0,0.06
2013-5-22,63.2,53.8,54.5,62.0,1.0,-99.9,100,60,84,29.77,29.63,7,-84,0,0.60
2013-5-23,54.1,48.0,38.8,53.0,40.0,-99.9,100,83,64,30.36,29.79,13,7,0,0.13
2013-5-24,57.5,45.3,37.0,40.0,24.9,-99.9,87,62,45,30.49,30.36,10,-9,0,0.00
2013-5-25,58.1,47.7,41.5,41.0,17.8,-99.9,91,55,31,30.45,30.32,10,-10,0,0.00
2013-5-26,62.6,44.2,-74.5,45.0,17.7,-99.9,90,57,43,30.42,30.19,19,-92,0,0.00
2013-5-27,54.5,50.4,48.6,52.0,43.1,-99.9,100,86,66,30.20,29.92,16,5,0,0.02
2013-5-28,73.9,54.2,48.6,68.0,32.0,-99.9,100,80,75,29.91,29.69,12,-58,0,0.37
2013-5-29,81.1,62.5,57.2,68.0,36.4,-99.9,100,68,53,29.90,29.76,157,-65,0,0.00
2013-5-30,84.5,63.6,11.1,69.0,19.9,-99.9,96,57,54,29.90,29.71,25,-114,0,0.42
2013-5-31,75.8,52.0,62.3,66.0,5.3,-99.9,100,53,61,29.80,29.68,20,-213,0,0.19
2013-6-1,77.0,63.8,61.3,68.0,22.0,-99.9,100,59,58,29.68,29.57,18,-45,0,0.37
2013-6-2,61.5,52.9,44.5,58.0,34.3,-99.9,93,70,55,30.04,29.63,13,-7,0,0.00
2013-6-3,69.1,50.2,40.5,55.0,23.1,-99.9,100,59,38,30.11,30.02,12,-60,0,0.01
2013-6-4,72.0,52.2,-74.5,49.0,24.5,-99.9,85,54,42,30.29,30.07,157,-45,0,0.00
2013-6-5,60.9,51.2,50.1,50.0,23.1,-99.9,91,66,48,30.16,29.99,10,-47,0,0.06
2013-6-6,62.0,51.7,51.3,53.0,38.8,-99.9,96,79,69,29.99,29.92,157,-44,0,0.10
2013-6-7,69.3,49.1,-74.5,52.0,9.5,-99.9,89,53,34,30.27,29.91,11,-49,0,0.03
2013-6-8,67.8,49.9,47.7,52.0,20.9,-99.9,91,62,53,30.02,29.91,155,-94,0,0.00
2013-6-9,71.3,50.7,51.4,60.0,17.5,-99.9,91,63,63,30.04,29.83,13,-97,0,0.00
2013-6-10,75.8,58.4,57.2,66.0,14.7,-99.9,96,59,66,29.84,29.76,7,-97,0,0.00
2013-6-11,81.6,63.8,56.7,64.0,32.1,-99.9,100,61,53,29.89,29.77,11,-87,0,0.00
2013-6-12,74.4,47.4,58.1,65.0,-9.8,-99.9,100,48,72,29.88,29.65,157,-260,0,1.22
2013-6-13,73.7,60.8,55.7,58.0,33.5,-99.9,100,64,49,30.07,29.71,14,-83,0,0.00
2013-6-14,74.4,58.2,54.1,56.0,28.2,-99.9,86,58,42,30.13,30.02,8,-46,0,0.00
2013-6-15,75.8,56.5,55.0,68.0,26.6,-99.9,99,67,72,30.07,29.79,157,-93,0,1.04
2013-6-16,81.4,55.8,63.4,66.0,8.2,-99.9,100,45,34,29.88,29.79,157,-196,0,0.00
2013-6-17,83.6,63.7,57.3,60.0,36.4,-99.9,91,59,36,29.98,29.83,13,-57,0,0.00
2013-6-18,67.4,56.5,51.3,57.0,33.5,-99.9,91,65,48,30.10,29.95,12,-33,0,0.00
2013-6-19,71.1,53.0,46.4,51.0,24.6,-99.9,90,59,42,30.16,30.08,8,-70,0,0.00
2013-6-20,82.2,61.6,53.5,61.0,26.9,-99.9,83,50,45,30.15,30.05,11,-71,0,0.00
2013-6-21,76.0,56.9,60.7,68.0,17.1,-99.9,100,58,65,30.17,29.89,157,-124,0,0.57
2013-6-22,76.7,48.7,-74.5,69.0,-2.2,-99.9,96,50,76,30.06,29.90,157,-251,0,0.00
2013-6-23,87.2,65.3,64.0,73.0,20.7,-99.9,99,55,60,29.99,29.84,157,-113,0,0.00
2013-6-24,79.6,64.9,68.4,69.0,36.9,-99.9,96,66,23,29.98,29.81,16,-109,0,0.00
2013-6-25,83.0,58.6,65.6,70.0,13.2,-99.9,100,59,61,29.93,29.78,10,-152,0,0.60
2013-6-26,80.9,59.6,66.8,69.0,19.1,-99.9,98,60,63,29.81,29.69,157,-115,0,0.00
2013-6-27,82.6,60.9,64.8,73.0,19.1,-99.9,100,61,61,29.76,29.65,14,-147,0,0.13
2013-6-28,75.8,56.5,63.5,67.0,8.0,-99.9,96,52,59,29.68,29.57,157,-148,0,0.28
2013-6-29,72.0,52.4,61.6,63.0,-6.2,-99.9,99,47,55,29.81,29.58,18,-200,0,0.02
2013-6-30,76.3,56.3,58.6,56.0,-0.6,-99.9,75,38,31,30.02,29.81,14,-116,0,0.00
2013-7-1,77.4,55.8,56.6,53.0,-6.0,-99.9,74,34,33,30.10,30.01,14,-167,0,0.00
2013-7-2,71.3,55.3,55.4,52.0,22.7,-99.9,86,53,42,30.11,30.07,12,-92,0,0.00
2013-7-3,65.0,48.4,58.7,62.0,0.8,-99.9,100,57,78,30.08,30.01,157,-158,0,0.03
2013-7-4,81.8,62.1,60.7,66.0,30.8,-99.9,100,60,42,30.09,29.98,10,-127,0,0.00
2013-7-5,84.0,58.9,65.2,65.0,5.6,-99.9,86,41,47,30.05,29.96,157,-155,0,0.00
2013-7-6,85.5,59.5,62.4,67.0,3.1,-99.9,93,45,38,30.05,29.92,10,-159,0,0.00
2013-7-7,87.0,63.0,68.3,73.0,25.5,-99.9,93,55,55,30.00,29.88,10,-177,0,0.00
2013-7-8,84.0,64.2,71.1,75.0,6.5,-99.9,96,52,71,29.98,29.87,12,-74,0,0.05
2013-7-9,82.2,55.6,-74.5,74.0,19.0,-99.9,100,63,75,30.04,29.79,157,-149,0,0.26
2013-7-10,76.5,61.8,66.3,99.9,33.7,-99.9,99,58,48,30.01,29.80,146,-115,0,0.01
2013-7-11,79.2,59.2,55.6,62.0,23.3,-99.9,95,55,41,30.12,30.02,10,-109,0,0.00
2013-7-12,80.5,66.9,52.3,63.0,46.4,-99.9,95,64,28,30.17,30.09,10,-11,0,0.00
2013-7-13,82.6,60.6,54.8,65.0,14.8,-99.9,96,51,41,30.19,30.09,12,-119,0,0.00
2013-7-14,84.7,62.6,60.2,69.0,26.0,-99.9,95,55,51,30.24,30.16,10,-144,0,0.00
2013-7-15,87.6,58.1,65.0,72.0,6.8,-99.9,97,51,57,30.28,30.21,9,-190,0,0.00
2013-7-16,91.2,68.3,11.1,77.0,27.8,-99.9,100,56,54,30.30,30.19,10,-123,0,0.00
2013-7-17,92.7,77.4,75.8,78.0,41.3,-99.9,94,59,52,30.28,30.12,14,-83,0,0.00
2013-7-18,92.5,79.6,74.7,76.0,48.0,-99.9,94,61,50,30.14,29.86,18,-45,0,0.00
2013-7-19,89.7,71.9,74.9,73.0,34.2,-99.9,78,51,50,29.86,29.69,19,-103,0,0.00
2013-7-20,82.4,57.6,62.6,69.0,8.5,-99.9,86,50,49,29.99,29.78,10,-101,0,0.00
2013-7-21,74.0,55.5,59.6,64.0,13.1,-99.9,100,57,64,30.31,29.88,10,-119,0,0.10
2013-7-22,84.1,66.0,61.5,74.0,42.8,-99.9,100,69,54,29.89,29.66,11,-61,0,0.01
2013-7-23,75.4,59.5,57.6,70.0,25.1,-99.9,87,56,54,30.00,29.67,12,-105,0,0.03
2013-7-24,70.1,57.1,52.6,54.0,30.9,-99.9,91,62,48,30.10,30.01,6,-60,0,0.00
2013-7-25,77.2,63.1,53.1,61.0,38.1,-99.9,92,63,52,30.10,29.95,18,-47,0,0.00
2013-7-26,71.5,49.4,61.5,67.0,16.6,-99.9,99,62,77,29.97,29.84,16,-180,0,0.37
2013-7-27,60.5,51.6,52.5,56.0,27.6,-99.9,93,69,61,29.94,29.86,18,-41,0,0.04
2013-7-28,65.3,51.4,52.2,55.0,-5.1,-99.9,95,54,67,30.00,29.83,157,-66,0,0.00
2013-7-29,73.0,55.6,54.4,58.0,32.4,-99.9,91,69,55,30.20,30.00,10,-74,0,0.00
2013-7-30,72.3,57.1,52.3,64.0,30.8,-99.9,100,71,69,30.20,30.10,8,-98,0,0.00
2013-7-31,77.4,61.8,60.7,68.0,41.1,-99.9,100,80,66,30.10,29.93,6,-36,0,0.15
2013-8-1,75.8,59.1,60.5,60.0,15.3,-99.9,95,53,42,29.98,29.90,14,-100,0,0.01
2013-8-2,78.1,63.3,60.5,67.0,20.7,-99.9,100,56,47,29.94,29.84,11,-82,0,0.20
2013-8-3,74.6,59.1,55.6,59.0,23.6,-99.9,88,52,44,30.12,29.95,13,-101,0,0.00
2013-8-4,73.3,59.1,57.0,61.0,38.7,-99.9,97,70,48,30.24,30.12,9,-46,0,0.00
2013-8-5,72.7,57.2,53.6,63.0,31.8,-99.9,99,71,64,30.14,29.87,10,-79,0,0.00
2013-8-6,82.6,69.0,63.1,69.0,40.6,-99.9,100,68,57,29.87,29.77,157,-32,0,0.00
2013-8-7,78.5,59.8,64.5,72.0,14.8,-99.9,99,57,58,29.97,29.73,157,-79,0,0.00
2013-8-8,73.7,61.8,58.1,63.0,31.0,-99.9,100,58,39,30.06,29.96,10,-79,0,0.00
2013-8-9,78.5,64.2,54.7,63.0,28.2,-99.9,92,59,52,30.05,29.96,11,-57,0,0.00
2013-8-10,75.4,59.0,53.5,65.0,25.9,-99.9,98,63,50,30.16,30.06,5,-73,0,0.00
2013-8-11,68.1,49.3,54.8,65.0,11.9,-99.9,97,65,84,30.15,30.04,157,-136,0,0.10
2013-8-12,79.9,61.2,62.3,70.0,11.0,-99.9,100,53,51,30.04,29.88,157,-69,0,0.02
2013-8-13,83.2,53.6,51.6,53.0,7.4,-99.9,89,50,47,30.18,30.01,157,-78,0,0.00
2013-8-14,69.8,50.4,47.0,52.0,20.6,-99.9,92,61,43,30.24,30.14,10,-111,0,0.00
2013-8-15,78.8,58.8,55.6,58.0,20.1,-99.9,89,51,31,30.15,30.08,13,-75,0,0.00
2013-8-16,78.8,60.7,55.1,60.0,27.5,-99.9,92,55,41,30.19,30.11,7,-60,0,0.00
2013-8-17,80.3,60.1,51.1,65.0,26.4,-99.9,96,58,40,30.26,30.17,12,-46,0,0.00
2013-8-18,79.6,59.0,51.3,67.0,30.9,-99.9,97,61,42,30.23,30.10,10,-108,0,0.00
2013-8-19,81.6,64.0,58.3,63.0,37.7,-99.9,89,61,46,30.12,30.01,12,-83,0,0.00
2013-8-20,85.9,67.0,61.5,68.0,32.2,-99.9,99,57,45,30.07,29.99,13,-57,0,0.00
2013-8-21,87.8,62.5,69.9,70.0,23.9,-99.9,86,54,55,30.04,29.80,20,-136,0,0.01
2013-8-22,76.1,61.0,59.9,71.0,11.6,-99.9,100,59,66,30.14,29.97,157,-100,0,0.09
2013-8-23,77.6,60.4,54.1,63.0,36.2,-99.9,99,66,43,30.21,30.13,27,-46,0,0.01
2013-8-24,83.0,66.2,51.3,64.0,39.8,-99.9,100,66,44,30.28,30.18,13,-22,0,0.00
2013-8-25,88.8,65.8,65.6,68.0,27.2,-99.9,86,49,41,30.19,30.04,17,-154,0,0.00
2013-8-26,88.6,72.0,73.2,74.0,45.6,-99.9,78,60,50,30.11,29.92,19,-69,0,0.00
2013-8-27,93.6,78.7,72.7,75.0,58.9,-99.9,91,67,48,29.93,29.75,16,-46,0,0.00
2013-8-28,82.8,63.2,67.3,72.0,30.8,-99.9,99,64,54,30.04,29.80,18,-84,0,0.00
2013-8-29,89.1,70.0,63.2,72.0,44.7,-99.9,100,65,48,30.08,29.97,12,-58,0,0.00
2013-8-30,91.2,70.1,67.1,77.0,36.6,-99.9,95,66,58,29.98,29.77,17,-56,0,0.10
2013-8-31,78.4,62.7,62.8,69.0,38.5,-99.9,100,74,66,29.89,29.80,8,-59,0,0.01
2013-9-1,83.7,59.4,62.0,71.0,32.0,-99.9,100,71,62,29.83,29.68,10,-95,0,0.30
2013-9-2,68.1,57.9,57.9,62.0,22.4,-99.9,96,62,64,30.02,29.81,11,-58,0,0.00
2013-9-3,74.2,56.5,11.1,56.0,20.2,-99.9,98,59,46,30.11,30.02,153,-45,0,0.00
2013-9-4,81.4,64.4,55.8,64.0,45.1,-99.9,95,71,55,30.15,30.05,11,-35,0,0.00
2013-9-5,68.8,61.1,53.0,62.0,38.1,-99.9,97,66,49,30.31,30.15,12,-22,0,0.00
2013-9-6,84.5,66.9,48.0,67.0,37.2,-99.9,100,64,50,30.26,29.98,9,-22,0,0.00
2013-9-7,81.8,66.7,68.1,73.0,43.0,-99.9,100,70,62,30.01,29.88,16,-59,0,0.43
2013-9-8,71.0,53.4,63.9,68.0,8.3,-99.9,100,59,75,30.11,29.97,11,-146,0,0.00
2013-9-9,87.0,68.8,65.4,77.0,37.8,-99.9,100,68,69,29.99,29.76,15,-103,0,0.03
2013-9-10,93.6,78.9,77.0,73.0,49.6,-99.9,75,51,39,29.91,29.77,20,-42,0,0.00
2013-9-11,80.3,66.5,67.6,71.0,43.5,-99.9,100,69,60,30.07,29.92,17,-97,0,0.11
2013-9-12,73.7,63.0,56.3,67.0,40.2,-99.9,100,72,51,30.14,29.96,16,-9,0,0.03
2013-9-13,63.1,51.8,46.7,47.0,23.2,-99.9,91,61,46,30.24,30.14,13,-33,0,0.00
2013-9-14,70.1,53.5,41.9,56.0,30.5,-99.9,100,66,43,30.20,30.01,11,-46,0,0.00
2013-9-15,60.3,54.5,53.8,58.0,35.8,-99.9,100,79,66,30.25,30.01,11,-22,0,0.51
2013-9-16,60.8,52.2,44.0,48.0,40.4,-99.9,89,73,55,30.42,30.27,13,5,0,0.00
2013-9-17,67.0,52.5,39.9,56.0,26.1,-99.9,100,71,59,30.38,30.13,11,-23,0,0.00
2013-9-18,78.6,64.1,55.1,68.0,45.9,-99.9,99,77,66,30.12,29.89,16,-22,0,0.11
2013-9-19,81.9,67.2,67.5,77.0,48.1,-99.9,100,81,76,29.91,29.72,16,-47,0,0.55
2013-9-20,73.0,62.1,58.8,68.0,37.8,-99.9,100,74,67,29.80,29.68,16,-66,0,0.02
2013-9-21,58.5,54.6,47.4,56.0,38.8,-99.9,95,75,63,29.98,29.80,13,5,0,0.00
2013-9-22,61.1,50.4,42.6,47.0,38.5,-99.9,92,75,52,30.11,29.98,7,-23,0,0.00
2013-9-23,62.3,45.7,-73.8,52.0,34.8,-99.9,100,80,61,30.31,30.08,10,-50,0,0.00
2013-9-24,66.3,49.1,43.3,60.0,30.7,-99.9,100,76,59,30.11,30.00,11,-60,0,0.01
2013-9-25,66.3,52.8,47.2,61.0,36.6,-99.9,100,78,63,30.02,29.91,8,-23,0,0.01
2013-9-26,73.0,57.9,45.8,66.0,46.4,-99.9,100,81,50,30.12,29.94,10,2,0,0.01
2013-9-27,77.4,58.0,45.6,60.0,47.8,-99.9,100,77,44,30.19,30.09,14,-10,0,0.01
2013-9-28,79.9,62.7,48.9,68.0,46.0,-99.9,100,73,52,30.09,29.84,21,-20,0,0.25
2013-9-29,70.1,57.7,48.0,56.0,28.9,-99.9,100,67,27,30.07,29.94,10,2,0,0.01
2013-9-30,71.6,56.4,42.9,55.0,43.9,-99.9,100,73,43,30.03,29.84,16,-11,0,0.00
2013-10-1,80.6,65.3,54.9,63.0,33.4,-99.9,92,63,55,29.93,29.80,24,-34,0,0.00
2013-10-2,75.4,62.2,48.9,55.0,32.3,-99.9,93,56,24,30.11,29.95,8,1,0,0.00
2013-10-3,75.8,60.9,52.7,70.0,38.7,-99.9,100,79,72,29.99,29.84,10,-11,0,1.06
2013-10-4,64.2,57.0,58.8,64.0,23.7,-99.9,100,77,100,30.06,29.87,12,-47,0,0.25
2013-10-5,70.0,55.2,60.2,70.0,26.5,-99.9,100,77,100,29.99,29.72,6,-120,0,0.09
2013-10-6,65.4,54.5,47.1,65.0,30.2,-99.9,100,68,48,29.75,29.67,16,-8,0,0.06
2013-10-7,64.4,51.8,44.9,49.0,34.6,-99.9,100,74,46,30.11,29.71,16,-7,0,0.02
2013-10-8,75.4,55.6,39.9,55.0,39.9,-99.9,100,72,37,30.19,30.11,11,-10,0,0.00
2013-10-9,71.8,57.1,46.5,55.0,30.2,-99.9,93,63,44,30.24,30.14,14,-23,0,0.00
2013-10-10,70.8,53.1,42.0,64.0,38.1,-99.9,100,80,46,30.21,30.07,10,-24,0,0.00
2013-10-11,72.5,55.5,46.8,66.0,38.5,-99.9,100,78,61,30.09,29.97,16,-22,0,0.02
2013-10-12,67.8,57.7,51.7,64.0,34.8,-99.9,99,69,49,30.16,29.92,12,-36,0,0.36
2013-10-13,59.3,50.0,40.2,44.0,19.1,-99.9,89,58,45,30.43,30.17,14,4,0,0.00
2013-10-14,57.7,46.9,36.2,49.0,34.5,-99.9,100,78,55,30.46,30.18,12,2,0,0.00
2013-10-15,58.5,53.0,44.5,59.0,47.7,-99.9,100,92,83,30.17,29.73,12,3,0,0.31
2013-10-16,54.5,50.5,47.5,51.0,36.7,-99.9,99,84,81,29.93,29.77,12,5,0,0.00
2013-10-17,52.4,47.1,43.8,46.0,40.6,-99.9,96,83,62,29.92,29.81,12,3,0,0.05
2013-10-18,50.2,44.6,41.5,44.0,29.5,-99.9,91,77,75,29.95,29.82,17,5,0,0.01
2013-10-19,51.1,43.6,37.3,40.0,34.9,-99.9,94,77,47,29.91,29.73,14,5,0,0.02
2013-10-20,49.5,42.5,33.6,47.0,40.5,33.0,100,93,82,29.87,29.71,12,4,0,0.10
2013-10-21,48.3,40.2,33.9,45.0,30.0,-99.9,91,71,56,29.93,29.72,21,9,0,0.00
2013-10-22,45.5,37.5,29.2,32.0,22.4,-99.9,82,65,54,29.96,29.90,13,5,0,0.00
2013-10-23,42.3,36.3,29.8,32.0,18.8,-99.9,87,64,43,29.99,29.93,18,6,0,0.00
2013-10-24,42.0,37.3,33.4,29.0,25.9,-99.9,79,67,56,30.27,29.98,17,8,0,0.00
2013-10-25,49.6,40.5,28.5,37.0,16.4,-99.9,88,59,41,30.35,29.86,26,8,0,0.00
2013-10-26,50.3,46.4,41.5,37.0,29.3,-99.9,70,54,43,30.03,29.73,26,11,0,0.00
2013-10-27,54.0,43.5,31.7,34.0,25.8,-99.9,86,60,40,30.03,29.88,18,5,0,0.00
2013-10-28,45.6,40.6,35.6,36.0,10.9,-99.9,83,61,58,30.42,30.00,12,6,0,0.00
2013-10-29,49.6,42.1,34.4,44.0,34.2,-99.9,94,82,76,30.41,30.14,157,5,0,0.00
2013-10-30,54.6,47.4,37.2,55.0,43.8,-99.9,100,96,94,30.14,29.73,12,3,0,0.00
2013-10-31,61.7,55.7,44.8,62.0,52.0,-99.9,100,97,95,29.73,29.17,18,6,0,1.08
2013-11-1,45.5,43.8,42.0,43.0,31.5,-99.9,97,86,89,29.70,29.25,21,8,0,0.03
2013-11-2,45.5,42.7,39.5,42.0,24.8,-99.9,98,77,65,30.14,29.70,11,4,0,0.03
2013-11-3,50.9,42.1,31.3,44.0,25.7,-99.9,100,76,52,30.29,30.14,12,3,0,0.01
2013-11-4,53.3,49.3,44.0,46.0,32.5,-99.9,86,70,62,30.24,30.05,19,8,0,0.00
2013-11-5,54.3,50.9,49.0,52.0,42.6,-99.9,100,85,78,30.23,29.87,14,4,0,0.05
2013-11-6,56.1,43.5,32.3,56.0,32.2,-99.9,100,83,66,30.13,29.67,20,-3,0,0.30
2013-11-7,39.9,33.8,27.7,32.0,19.1,-99.9,91,73,66,30.21,30.13,13,-7,0,0.00
2013-11-8,44.9,37.1,26.7,35.0,19.1,-99.9,96,69,59,30.30,29.84,18,6,0,0.01
2013-11-9,52.6,46.8,40.8,42.0,27.9,-99.9,79,62,54,30.01,29.71,28,14,0,0.00
2013-11-10,47.4,42.2,38.6,32.0,-8.9,-99.9,68,43,48,30.28,30.01,28,9,0,0.00
2013-11-11,42.8,33.0,25.4,35.0,2.6,-99.9,94,60,58,30.53,30.03,19,-5,0,0.06
2013-11-12,29.2,23.5,19.6,18.0,-7.3,-99.9,80,53,48,30.70,30.54,13,-19,0,0.00
2013-11-13,41.5,30.9,19.5,20.0,-13.0,-99.9,78,44,33,30.54,29.99,30,13,0,0.01
2013-11-14,46.2,40.2,33.4,30.0,17.0,-99.9,62,51,47,29.99,29.83,19,9,0,0.00
2013-11-15,54.8,45.3,39.5,37.0,21.2,-99.9,84,57,50,29.88,29.82,14,5,0,0.00
2013-11-16,59.4,47.4,39.2,56.0,36.9,-99.9,100,88,84,29.85,29.44,22,9,0,0.07
2013-11-17,63.6,53.0,41.5,64.0,21.0,-99.9,100,73,73,29.56,29.04,27,11,0,1.03
2013-11-18,41.2,33.9,28.0,34.0,24.9,21.0,76,69,63,30.22,29.56,31,15,0,0.00
2013-11-19,38.5,30.1,22.3,30.0,24.2,18.0,92,79,58,30.35,30.21,8,2,0,0.00
2013-11-20,43.2,37.4,31.1,35.0,29.5,-99.9,94,77,52,30.21,30.05,16,6,0,0.03
2013-11-21,45.5,40.5,35.9,44.0,35.4,-99.9,100,91,81,30.16,30.05,10,2,0,0.00
2013-11-22,39.0,31.3,25.7,36.0,6.6,-99.9,93,68,65,30.39,30.15,157,-3,0,0.00
2013-11-23,25.7,15.7,-90.0,16.0,-25.3,-99.9,68,42,43,30.78,30.32,21,-2,0,0.00
2013-11-24,26.1,17.6,8.4,9.0,-29.0,-99.9,79,36,36,30.68,30.24,19,7,0,0.00
2013-11-25,29.4,26.1,22.3,26.0,10.0,-99.9,94,70,48,30.23,29.97,25,11,0,0.00
2013-11-26,31.4,25.8,13.6,27.0,17.4,4.0,86,71,47,30.16,29.97,21,7,0,0.00
2013-11-27,26.0,18.1,11.1,17.0,1.9,-99.9,87,64,51,30.20,30.11,15,-6,0,0.00
2013-11-28,26.3,21.8,16.4,18.0,7.9,-99.9,89,71,64,30.46,30.14,11,2,0,0.00
2013-11-29,31.3,23.4,9.0,24.0,15.9,6.0,90,74,52,30.60,30.32,9,2,0,0.00
2013-11-30,45.8,36.3,28.2,32.0,21.3,-99.9,79,68,57,30.31,29.96,13,5,0,0.00
2013-12-1,40.0,32.8,28.0,31.0,13.6,-99.9,89,69,60,30.08,29.94,8,-23,0,0.00
2013-12-2,39.8,32.9,24.3,36.0,23.9,-99.9,96,82,72,29.93,29.74,13,3,0,0.04
2013-12-3,39.3,37.4,33.9,39.0,33.9,-99.9,100,97,94,29.74,29.66,12,5,0,0.16
2013-12-4,50.9,42.5,37.3,51.0,40.7,-99.9,100,98,87,29.72,29.37,20,6,0,0.03
2013-12-5,37.3,24.5,15.5,34.0,13.2,-99.9,88,69,61,30.22,29.51,26,14,0,0.00
2013-12-6,15.5,10.9,7.4,7.0,-22.0,-99.9,76,53,61,30.51,30.20,14,9,0,0.00
2013-12-7,13.8,6.8,1.2,5.0,-25.1,-99.9,76,51,53,30.66,30.50,12,-56,0,0.00
2013-12-8,25.5,16.3,5.0,24.0,-2.8,-99.9,93,70,64,30.59,29.85,14,4,0,0.00
2013-12-9,25.4,11.3,-1.3,24.0,-37.8,-99.9,94,46,63,30.13,29.82,24,-29,0,0.00
2013-12-10,17.6,7.8,-6.3,9.0,-13.3,-99.9,80,58,58,30.19,29.86,22,8,0,0.00
2013-12-11,12.3,5.9,-2.8,8.0,-12.2,-99.9,81,57,49,30.47,30.19,20,-6,0,0.00
2013-12-12,16.3,8.4,-4.3,8.0,-12.6,-99.9,70,56,58,30.44,30.11,18,7,0,0.00
2013-12-13,21.3,16.6,15.0,15.0,-32.1,-99.9,80,45,71,30.21,30.08,11,-61,0,0.00
2013-12-14,25.5,22.8,18.8,23.0,12.3,-99.9,89,81,78,30.13,29.84,13,-6,0,0.00
2013-12-15,19.6,9.5,1.0,17.0,-24.1,-99.9,88,50,51,30.08,29.81,22,-41,0,0.19
2013-12-16,19.3,8.2,-3.9,10.0,-30.5,-99.9,82,46,44,30.12,29.92,12,-9,0,0.00
2013-12-17,32.8,23.2,13.5,24.0,11.9,-99.9,89,74,62,29.95,29.80,20,-3,0,0.02
2013-12-18,33.6,23.7,11.8,26.0,8.2,-99.9,80,59,38,30.04,29.66,19,-6,0,0.00
2013-12-19,32.2,28.8,26.0,31.0,19.8,-99.9,98,86,79,29.91,29.69,14,4,0,0.00
2013-12-20,29.2,24.4,24.5,29.0,-9.5,-99.9,100,72,98,29.81,29.68,12,-57,0,0.00
2013-12-21,30.8,27.2,24.2,31.0,-2.1,-99.9,100,77,100,29.81,29.61,12,-8,0,0.00
2013-12-22,30.7,30.1,29.2,31.0,29.9,29.0,100,99,98,29.68,29.64,13,8,0,0.00